Daily Tabular Data
[Select Refresh to Update]


8/16/18
Time         Wind Dir   Wind Spd  Wind Gust     Hum In   Humidity    Temp In       Temp  Raw Barom   Tot Rain Wind Chill Heat Ix In Heat Index  Dew Point  DailyRain   HourRain   RainRate
                            mph        mph          %          %         F         F         in         in         F         F         F         F         in         in      in/hr
12:00am           184          0          5         61         87       77.1       69.4      29.10       0.00       69.4       79.0       74.6       65.4       0.00       0.00      0.000
12:30am           162          0          5         62         88       76.9       69.4      29.10       0.00       69.4       78.9       74.7       65.7       0.00       0.00      0.000
1:00am            224          0          2         62         88       76.7       69.3      29.10       0.00       69.3       78.7       74.6       65.6       0.00       0.00      0.000
1:30am            144          0          4         63         88       76.6       69.2      29.09       0.00       69.2       78.7       74.5       65.5       0.00       0.00      0.000
2:00am            198          0          3         63         89       76.5       69.1      29.09       0.00       69.1       78.6       74.6       65.7       0.00       0.00      0.000
2:30am            154          0          3         63         89       76.5       69.2      29.09       0.00       69.2       78.6       74.7       65.8       0.00       0.00      0.000
3:00am            149          0          4         63         88       76.4       69.4      29.10       0.00       69.4       78.5       74.7       65.7       0.00       0.00      0.000
3:30am            170          0          0         63         88       76.4       69.6      29.09       0.00       69.6       78.5       74.9       65.9       0.00       0.00      0.000
4:00am            171          0          0         64         89       76.2       69.0      29.10       0.00       69.0       78.5       74.5       65.6       0.00       0.00      0.000
4:30am            171          0          0         64         90       76.2       69.3      29.10       0.00       69.3       78.5       74.9       66.2       0.00       0.00      0.000
5:00am            267          0          0         64         89       76.2       69.4      29.11       0.00       69.4       78.5       74.9       66.0       0.00       0.00      0.000
5:30am            306          0          0         64         89       76.3       69.8      29.11       0.00       69.8       78.6       75.3       66.4       0.00       0.00      0.000
6:00am            171          0          0         64         88       76.3       70.0      29.12       0.00       70.0       78.6       75.3       66.3       0.00       0.00      0.000
6:30am            174          0          5         64         88       76.3       70.0      29.13       0.00       70.0       78.6       75.3       66.3       0.00       0.00      0.000
7:00am            220          0          2         64         87       76.4       70.7      29.14       0.00       70.7       78.7       75.9       66.6       0.00       0.00      0.000
7:30am            223          0          3         64         87       76.6       70.7      29.15       0.00       70.7       78.9       75.9       66.6       0.00       0.00      0.000
8:00am            244          0          2         63         86       76.8       71.2      29.16       0.00       71.2       78.9       76.3       66.8       0.00       0.00      0.000
8:30am             70          0          4         63         85       77.0       72.2      29.16       0.00       72.2       79.1       77.1       67.4       0.00       0.00      0.000
9:00am            337          2          4         62         80       77.4       73.5      29.17       0.00       73.5       79.4       77.7       67.0       0.00       0.00      0.000
9:30am            241          0          4         62         80       77.7       74.9      29.17       0.00       74.9       79.7       79.1       68.3       0.00       0.00      0.000
10:00am           185          2          5         61         74       77.9       77.8      29.16       0.00       77.8       79.8       81.2       68.9       0.00       0.00      0.000
10:30am           342          0          5         61         72       78.1       78.0      29.16       0.00       78.0       80.0       81.2       68.2       0.00       0.00      0.000
11:00am           321          0          5         61         67       78.3       81.2      29.15       0.00       81.2       80.2       84.5       69.2       0.00       0.00      0.000
11:30am           346          4          8         61         63       78.4       82.8      29.15       0.00       82.8       80.3       86.3       68.9       0.00       0.00      0.000
12:00pm           281          0          8         61         62       78.7       83.9      29.16       0.00       83.9       80.6       87.9       69.5       0.00       0.00      0.000
12:30pm            15          5         11         61         61       79.0       84.3      29.15       0.00       84.3       80.9       88.3       69.4       0.00       0.00      0.000
1:00pm             45          0         12         61         60       79.2       85.1      29.14       0.00       85.1       81.1       89.4       69.7       0.00       0.00      0.000
1:30pm            258          0          9         54         60       78.6       86.9      29.13       0.00       86.9       79.8       92.9       71.4       0.00       0.00      0.000
2:00pm            344          6         12         54         57       78.5       87.5      29.13       0.00       87.5       79.7       92.8       70.4       0.00       0.00      0.000
2:30pm            320          4         11         52         60       78.7       85.6      29.13       0.00       85.6       79.7       90.3       70.1       0.00       0.00      0.000
3:00pm            315          2         13         52         61       78.6       84.7      29.13       0.00       84.7       79.6       89.0       69.8       0.00       0.00      0.000
3:30pm            261          1          9         50         58       78.8       87.1      29.13       0.00       87.1       79.6       92.5       70.5       0.00       0.00      0.000
4:00pm            265          6         10         50         60       78.7       85.8      29.13       0.00       85.8       79.5       90.7       70.3       0.00       0.00      0.000
4:30pm            272          2         11         48         61       78.9       84.3      29.12       0.00       84.3       79.5       88.3       69.4       0.00       0.00      0.000
5:00pm             14          0          9         49         62       78.9       83.8      29.13       0.00       83.8       79.6       87.7       69.4       0.00       0.00      0.000
5:30pm            175          2         10         45         64       78.7       82.7      29.13       0.00       82.7       79.0       86.3       69.3       0.00       0.00      0.000
6:00pm            276          7         10         46         67       78.9       81.0      29.13       0.00       81.0       79.3       84.1       69.0       0.00       0.00      0.000
6:30pm            191          5         11         44         70       78.6       79.1      29.14       0.00       79.1       78.9       82.1       68.5       0.00       0.00      0.000
7:00pm            255          2          9         42         74       77.8       77.1      29.14       0.00       77.1       77.9       80.5       68.2       0.00       0.00      0.000
7:30pm            245          2          9         43         78       77.1       74.8      29.15       0.00       74.8       77.3       78.8       67.5       0.00       0.00      0.000
8:00pm            185          1          7         46         82       76.7       72.8      29.16       0.00       72.8       77.1       77.3       67.0       0.00       0.00      0.000
8:30pm            242          3          7         59         84       78.2       71.9      29.17       0.00       71.9       79.9       76.7       66.8       0.00       0.00      0.000
9:00pm            168          1          5         60         90       78.5       72.0      29.17       0.00       72.0       80.3       77.6       68.9       0.00       0.00      0.000
9:30pm            177          0          7         60         84       78.6       71.6      29.18       0.00       71.6       80.4       76.4       66.5       0.00       0.00      0.000
10:00pm           170          5          7         61         85       78.4       71.7      29.18       0.00       71.7       80.3       76.6       67.0       0.00       0.00      0.000
10:30pm           240          0          9         61         87       78.2       70.4      29.19       0.00       70.4       80.1       75.6       66.4       0.00       0.00      0.000
11:00pm           198          4          5         61         87       78.1       70.3      29.19       0.00       70.3       80.0       75.5       66.3       0.00       0.00      0.000
11:30pm           263          0          6         62         88       78.0       70.5      29.19       0.00       70.5       80.0       75.8       66.8       0.00       0.00      0.000